sensor_id;sensor_type;location;lat;lon;timestamp;pressure;altitude;pressure_sealevel;temperature;humidity
59043;BME280;44826;51.596;5.624;2023-09-08T00:01:17;101606.72;;;17.66;82.56
59043;BME280;44826;51.596;5.624;2023-09-08T00:03:42;101610.31;;;17.63;82.31
59043;BME280;44826;51.596;5.624;2023-09-08T00:06:07;101605.16;;;17.62;82.63
59043;BME280;44826;51.596;5.624;2023-09-08T00:08:33;101605.28;;;17.58;82.34
59043;BME280;44826;51.596;5.624;2023-09-08T00:10:58;101612.44;;;17.55;82.28
59043;BME280;44826;51.596;5.624;2023-09-08T00:13:23;101610.88;;;17.51;82.31
59043;BME280;44826;51.596;5.624;2023-09-08T00:15:49;101608.34;;;17.48;81.95
59043;BME280;44826;51.596;5.624;2023-09-08T00:18:14;101610.28;;;17.44;81.62
59043;BME280;44826;51.596;5.624;2023-09-08T00:20:39;101613.09;;;17.39;81.80
59043;BME280;44826;51.596;5.624;2023-09-08T00:23:06;101618.41;;;17.38;81.44
59043;BME280;44826;51.596;5.624;2023-09-08T00:25:32;101617.69;;;17.34;81.63
59043;BME280;44826;51.596;5.624;2023-09-08T00:27:57;101615.25;;;17.29;83.43
59043;BME280;44826;51.596;5.624;2023-09-08T00:30:22;101619.72;;;17.27;83.55
59043;BME280;44826;51.596;5.624;2023-09-08T00:32:48;101612.09;;;17.21;83.08
59043;BME280;44826;51.596;5.624;2023-09-08T00:35:13;101622.78;;;17.17;83.49
59043;BME280;44826;51.596;5.624;2023-09-08T00:37:39;101616.75;;;17.14;83.84
59043;BME280;44826;51.596;5.624;2023-09-08T00:40:05;101617.66;;;17.13;84.18
59043;BME280;44826;51.596;5.624;2023-09-08T00:42:32;101614.22;;;17.11;84.26
59043;BME280;44826;51.596;5.624;2023-09-08T00:44:57;101613.44;;;17.09;84.42
59043;BME280;44826;51.596;5.624;2023-09-08T00:47:23;101610.03;;;17.07;83.90
59043;BME280;44826;51.596;5.624;2023-09-08T00:49:48;101613.59;;;17.06;84.53
59043;BME280;44826;51.596;5.624;2023-09-08T00:52:16;101612.84;;;17.03;84.07
59043;BME280;44826;51.596;5.624;2023-09-08T00:54:41;101610.41;;;16.98;84.63
59043;BME280;44826;51.596;5.624;2023-09-08T00:57:07;101606.97;;;16.96;84.98
59043;BME280;44826;51.596;5.624;2023-09-08T00:59:35;101605.25;;;16.95;84.47
59043;BME280;44826;51.596;5.624;2023-09-08T01:02:01;101612.28;;;16.94;85.38
59043;BME280;44826;51.596;5.624;2023-09-08T01:04:27;101611.38;;;16.95;84.67
59043;BME280;44826;51.596;5.624;2023-09-08T01:06:54;101602.72;;;16.92;84.19
59043;BME280;44826;51.596;5.624;2023-09-08T01:09:20;101605.50;;;16.89;84.15
59043;BME280;44826;51.596;5.624;2023-09-08T01:11:46;101608.28;;;16.84;84.89
59043;BME280;44826;51.596;5.624;2023-09-08T01:14:12;101605.81;;;16.81;84.68
59043;BME280;44826;51.596;5.624;2023-09-08T01:16:38;101603.22;;;16.79;85.49
59043;BME280;44826;51.596;5.624;2023-09-08T01:19:11;101602.38;;;16.79;85.62
59043;BME280;44826;51.596;5.624;2023-09-08T01:27:05;101616.63;;;16.73;85.09
59043;BME280;44826;51.596;5.624;2023-09-08T01:29:33;101613.19;;;16.71;85.50
59043;BME280;44826;51.596;5.624;2023-09-08T01:31:59;101615.03;;;16.69;85.65
59043;BME280;44826;51.596;5.624;2023-09-08T01:34:25;101607.25;;;16.66;85.98
59043;BME280;44826;51.596;5.624;2023-09-08T01:36:51;101611.72;;;16.64;86.35
59043;BME280;44826;51.596;5.624;2023-09-08T01:39:16;101612.59;;;16.64;86.07
59043;BME280;44826;51.596;5.624;2023-09-08T01:41:41;101615.31;;;16.61;86.03
59043;BME280;44826;51.596;5.624;2023-09-08T01:44:07;101617.19;;;16.58;86.31
59043;BME280;44826;51.596;5.624;2023-09-08T01:46:35;101611.94;;;16.58;86.45
59043;BME280;44826;51.596;5.624;2023-09-08T01:49:00;101616.28;;;16.59;86.47
59043;BME280;44826;51.596;5.624;2023-09-08T01:51:26;101614.63;;;16.56;86.23
59043;BME280;44826;51.596;5.624;2023-09-08T01:53:51;101620.88;;;16.53;86.01
59043;BME280;44826;51.596;5.624;2023-09-08T01:56:16;101612.19;;;16.51;86.35
59043;BME280;44826;51.596;5.624;2023-09-08T01:58:42;101604.41;;;16.48;85.47
59043;BME280;44826;51.596;5.624;2023-09-08T02:01:07;101608.97;;;16.43;86.31
59043;BME280;44826;51.596;5.624;2023-09-08T02:03:32;101605.56;;;16.41;86.28
59043;BME280;44826;51.596;5.624;2023-09-08T02:05:58;101604.72;;;16.41;85.76
59043;BME280;44826;51.596;5.624;2023-09-08T02:08:23;101604.78;;;16.39;86.05
59043;BME280;44826;51.596;5.624;2023-09-08T02:10:48;101602.28;;;16.36;85.90
59043;BME280;44826;51.596;5.624;2023-09-08T02:13:14;101601.50;;;16.32;86.20
59043;BME280;44826;51.596;5.624;2023-09-08T02:15:39;101604.22;;;16.31;87.04
59043;BME280;44826;51.596;5.624;2023-09-08T02:18:06;101598.97;;;16.31;88.05
59043;BME280;44826;51.596;5.624;2023-09-08T02:20:31;101598.97;;;16.31;87.21
59043;BME280;44826;51.596;5.624;2023-09-08T02:22:58;101592.88;;;16.30;87.33
59043;BME280;44826;51.596;5.624;2023-09-08T02:25:28;101598.16;;;16.29;87.46
59043;BME280;44826;51.596;5.624;2023-09-08T02:27:53;101595.53;;;16.29;87.99
59043;BME280;44826;51.596;5.624;2023-09-08T02:30:19;101593.81;;;16.28;87.92
59043;BME280;44826;51.596;5.624;2023-09-08T02:32:44;101599.97;;;16.27;87.30
59043;BME280;44826;51.596;5.624;2023-09-08T02:35:10;101598.22;;;16.27;87.71
59043;BME280;44826;51.596;5.624;2023-09-08T02:37:35;101588.69;;;16.24;87.54
59043;BME280;44826;51.596;5.624;2023-09-08T02:40:01;101590.53;;;16.22;86.93
59043;BME280;44826;51.596;5.624;2023-09-08T02:42:27;101581.97;;;16.17;87.62
59043;BME280;44826;51.596;5.624;2023-09-08T02:44:52;101589.84;;;16.17;87.71
59043;BME280;44826;51.596;5.624;2023-09-08T02:47:17;101592.47;;;16.17;87.74
59043;BME280;44826;51.596;5.624;2023-09-08T02:49:42;101591.59;;;16.17;87.99
59043;BME280;44826;51.596;5.624;2023-09-08T02:52:08;101586.41;;;16.15;88.18
59043;BME280;44826;51.596;5.624;2023-09-08T02:54:33;101591.72;;;16.14;88.35
59043;BME280;44826;51.596;5.624;2023-09-08T02:56:59;101590.00;;;16.13;87.43
59043;BME280;44826;51.596;5.624;2023-09-08T02:59:24;101590.97;;;16.10;87.77
59043;BME280;44826;51.596;5.624;2023-09-08T03:01:49;101589.31;;;16.07;87.93
59043;BME280;44826;51.596;5.624;2023-09-08T03:04:15;101596.31;;;16.07;88.45
59043;BME280;44826;51.596;5.624;2023-09-08T03:06:40;101590.22;;;16.06;88.70
59043;BME280;44826;51.596;5.624;2023-09-08T03:09:05;101585.97;;;16.04;88.66
59043;BME280;44826;51.596;5.624;2023-09-08T03:11:30;101585.97;;;16.04;88.97
59043;BME280;44826;51.596;5.624;2023-09-08T03:13:56;101587.69;;;16.05;88.62
59043;BME280;44826;51.596;5.624;2023-09-08T03:16:21;101582.53;;;16.02;88.06
59043;BME280;44826;51.596;5.624;2023-09-08T03:18:46;101581.78;;;15.98;88.03
59043;BME280;44826;51.596;5.624;2023-09-08T03:21:13;101589.72;;;15.97;88.41
59043;BME280;44826;51.596;5.624;2023-09-08T03:23:40;101587.19;;;15.93;88.58
59043;BME280;44826;51.596;5.624;2023-09-08T03:26:07;101588.09;;;15.92;88.39
59043;BME280;44826;51.596;5.624;2023-09-08T03:28:33;101587.38;;;15.89;88.67
59043;BME280;44826;51.596;5.624;2023-09-08T03:31:00;101595.31;;;15.87;88.71
59043;BME280;44826;51.596;5.624;2023-09-08T03:33:26;101590.06;;;15.87;87.27
59043;BME280;44826;51.596;5.624;2023-09-08T03:35:51;101593.59;;;15.86;88.22
59043;BME280;44826;51.596;5.624;2023-09-08T03:38:16;101578.69;;;15.87;88.72
59043;BME280;44826;51.596;5.624;2023-09-08T03:40:42;101572.69;;;15.83;88.31
59043;BME280;44826;51.596;5.624;2023-09-08T03:43:07;101577.13;;;15.81;89.15
59043;BME280;44826;51.596;5.624;2023-09-08T03:45:33;101572.78;;;15.80;89.05
59043;BME280;44826;51.596;5.624;2023-09-08T03:47:58;101576.22;;;15.82;88.88
59043;BME280;44826;51.596;5.624;2023-09-08T03:50:23;101579.75;;;15.81;88.64
59043;BME280;44826;51.596;5.624;2023-09-08T03:52:49;101565.81;;;15.79;88.80
59043;BME280;44826;51.596;5.624;2023-09-08T03:55:15;101583.47;;;15.74;89.14
59043;BME280;44826;51.596;5.624;2023-09-08T03:57:42;101579.94;;;15.75;89.33
59043;BME280;44826;51.596;5.624;2023-09-08T04:00:07;101575.56;;;15.75;89.70
59043;BME280;44826;51.596;5.624;2023-09-08T04:02:33;101571.16;;;15.76;89.23
59043;BME280;44826;51.596;5.624;2023-09-08T04:04:58;101578.13;;;15.77;89.42
59043;BME280;44826;51.596;5.624;2023-09-08T04:07:23;101573.84;;;15.74;89.46
59043;BME280;44826;51.596;5.624;2023-09-08T04:09:49;101576.53;;;15.73;88.92
59043;BME280;44826;51.596;5.624;2023-09-08T04:12:14;101581.84;;;15.71;89.17
59043;BME280;44826;51.596;5.624;2023-09-08T04:14:39;101566.09;;;15.71;89.59
59043;BME280;44826;51.596;5.624;2023-09-08T04:17:05;101573.13;;;15.71;89.56
59043;BME280;44826;51.596;5.624;2023-09-08T04:19:30;101567.88;;;15.71;90.28
59043;BME280;44826;51.596;5.624;2023-09-08T04:21:55;101561.75;;;15.70;89.86
59043;BME280;44826;51.596;5.624;2023-09-08T04:24:20;101571.41;;;15.70;90.19
59043;BME280;44826;51.596;5.624;2023-09-08T04:26:46;101564.44;;;15.69;89.67
59043;BME280;44826;51.596;5.624;2023-09-08T04:29:11;101568.94;;;15.65;90.42
59043;BME280;44826;51.596;5.624;2023-09-08T04:31:36;101564.59;;;15.64;90.61
59043;BME280;44826;51.596;5.624;2023-09-08T04:34:02;101571.63;;;15.63;90.07
59043;BME280;44826;51.596;5.624;2023-09-08T04:36:27;101569.97;;;15.61;90.48
59043;BME280;44826;51.596;5.624;2023-09-08T04:38:52;101570.06;;;15.58;91.14
59043;BME280;44826;51.596;5.624;2023-09-08T04:41:17;101569.19;;;15.57;90.83
59043;BME280;44826;51.596;5.624;2023-09-08T04:43:43;101567.38;;;15.59;91.51
59043;BME280;44826;51.596;5.624;2023-09-08T04:46:09;101570.00;;;15.59;90.83
59043;BME280;44826;51.596;5.624;2023-09-08T04:48:35;101565.63;;;15.60;90.35
59043;BME280;44826;51.596;5.624;2023-09-08T04:51:00;101568.28;;;15.58;90.45
59043;BME280;44826;51.596;5.624;2023-09-08T04:53:25;101570.06;;;15.58;90.40
59043;BME280;44826;51.596;5.624;2023-09-08T04:55:50;101569.25;;;15.56;90.21
59043;BME280;44826;51.596;5.624;2023-09-08T04:58:16;101573.63;;;15.55;90.85
59043;BME280;44826;51.596;5.624;2023-09-08T05:00:41;101565.72;;;15.57;91.24
59043;BME280;44826;51.596;5.624;2023-09-08T05:03:06;101573.53;;;15.58;91.26
59043;BME280;44826;51.596;5.624;2023-09-08T05:05:32;101571.81;;;15.57;91.60
59043;BME280;44826;51.596;5.624;2023-09-08T05:07:57;101575.34;;;15.56;91.58
59043;BME280;44826;51.596;5.624;2023-09-08T05:10:23;101569.25;;;15.56;91.87
59043;BME280;44826;51.596;5.624;2023-09-08T05:12:48;101570.09;;;15.56;91.88
59043;BME280;44826;51.596;5.624;2023-09-08T05:15:15;101575.31;;;15.58;91.78
59043;BME280;44826;51.596;5.624;2023-09-08T05:17:41;101578.78;;;15.58;91.65
59043;BME280;44826;51.596;5.624;2023-09-08T05:20:07;101578.78;;;15.58;91.67
59043;BME280;44826;51.596;5.624;2023-09-08T05:22:32;101575.25;;;15.59;91.62
59043;BME280;44826;51.596;5.624;2023-09-08T05:24:58;101582.22;;;15.60;91.74
59043;BME280;44826;51.596;5.624;2023-09-08T05:27:23;101583.00;;;15.62;91.93
59043;BME280;44826;51.596;5.624;2023-09-08T05:29:48;101585.53;;;15.66;91.90
59043;BME280;44826;51.596;5.624;2023-09-08T05:32:13;101583.72;;;15.68;91.88
59043;BME280;44826;51.596;5.624;2023-09-08T05:34:39;101590.69;;;15.69;92.55
59043;BME280;44826;51.596;5.624;2023-09-08T05:37:04;101581.03;;;15.69;91.80
59043;BME280;44826;51.596;5.624;2023-09-08T05:39:29;101576.66;;;15.70;91.69
59043;BME280;44826;51.596;5.624;2023-09-08T05:41:54;101578.38;;;15.71;92.04
59043;BME280;44826;51.596;5.624;2023-09-08T05:44:20;101582.56;;;15.75;91.99
59043;BME280;44826;51.596;5.624;2023-09-08T05:46:45;101593.88;;;15.77;91.92
59043;BME280;44826;51.596;5.624;2023-09-08T05:49:10;101579.84;;;15.78;91.83
59043;BME280;44826;51.596;5.624;2023-09-08T05:51:36;101591.97;;;15.81;92.24
59043;BME280;44826;51.596;5.624;2023-09-08T05:54:01;101590.13;;;15.84;92.58
59043;BME280;44826;51.596;5.624;2023-09-08T05:56:30;101595.31;;;15.87;92.96
59043;BME280;44826;51.596;5.624;2023-09-08T05:58:56;101594.25;;;15.91;92.67
59043;BME280;44826;51.596;5.624;2023-09-08T06:01:21;101596.75;;;15.96;92.61
59043;BME280;44826;51.596;5.624;2023-09-08T06:03:47;101593.03;;;16.02;92.83
59043;BME280;44826;51.596;5.624;2023-09-08T06:06:12;101599.00;;;16.05;92.94
59043;BME280;44826;51.596;5.624;2023-09-08T06:08:38;101595.38;;;16.10;92.96
59043;BME280;44826;51.596;5.624;2023-09-08T06:11:03;101590.84;;;16.13;93.14
59043;BME280;44826;51.596;5.624;2023-09-08T06:13:29;101596.72;;;16.20;93.85
59043;BME280;44826;51.596;5.624;2023-09-08T06:15:54;101595.72;;;16.24;93.78
59043;BME280;44826;51.596;5.624;2023-09-08T06:18:19;101599.06;;;16.28;93.81
59043;BME280;44826;51.596;5.624;2023-09-08T06:20:47;101597.97;;;16.33;93.93
59043;BME280;44826;51.596;5.624;2023-09-08T06:23:13;101600.44;;;16.38;94.59
59043;BME280;44826;51.596;5.624;2023-09-08T06:25:39;101601.91;;;16.45;94.24
59043;BME280;44826;51.596;5.624;2023-09-08T06:28:04;101607.75;;;16.53;94.80
59043;BME280;44826;51.596;5.624;2023-09-08T06:30:29;101596.13;;;16.59;94.81
59043;BME280;44826;51.596;5.624;2023-09-08T06:32:55;101594.97;;;16.66;94.48
59043;BME280;44826;51.596;5.624;2023-09-08T06:35:20;101595.53;;;16.75;93.63
59043;BME280;44826;51.596;5.624;2023-09-08T06:37:45;101593.50;;;16.81;93.27
59043;BME280;44826;51.596;5.624;2023-09-08T06:40:11;101598.41;;;16.91;92.57
59043;BME280;44826;51.596;5.624;2023-09-08T06:42:36;101602.50;;;16.98;92.38
59043;BME280;44826;51.596;5.624;2023-09-08T06:45:01;101606.63;;;17.05;92.83
59043;BME280;44826;51.596;5.624;2023-09-08T06:47:27;101599.34;;;17.12;91.88
59043;BME280;44826;51.596;5.624;2023-09-08T06:49:52;101599.00;;;17.20;91.81
59043;BME280;44826;51.596;5.624;2023-09-08T06:52:17;101605.72;;;17.27;91.36
59043;BME280;44826;51.596;5.624;2023-09-08T06:54:43;101601.91;;;17.34;92.31
59043;BME280;44826;51.596;5.624;2023-09-08T06:57:10;101610.41;;;17.41;91.42
59043;BME280;44826;51.596;5.624;2023-09-08T06:59:35;101609.22;;;17.48;92.18
59043;BME280;44826;51.596;5.624;2023-09-08T07:02:00;101609.81;;;17.55;91.33
59043;BME280;44826;51.596;5.624;2023-09-08T07:04:26;101610.41;;;17.62;91.24
59043;BME280;44826;51.596;5.624;2023-09-08T07:06:51;101612.72;;;17.69;91.21
59043;BME280;44826;51.596;5.624;2023-09-08T07:09:19;101624.66;;;17.77;91.37
59043;BME280;44826;51.596;5.624;2023-09-08T07:11:45;101616.47;;;17.84;90.90
59043;BME280;44826;51.596;5.624;2023-09-08T07:14:10;101612.69;;;17.90;90.29
59043;BME280;44826;51.596;5.624;2023-09-08T07:16:35;101611.47;;;17.97;90.74
59043;BME280;44826;51.596;5.624;2023-09-08T07:19:01;101614.72;;;18.04;90.73
59043;BME280;44826;51.596;5.624;2023-09-08T07:21:26;101616.16;;;18.11;90.87
59043;BME280;44826;51.596;5.624;2023-09-08T07:23:52;101615.03;;;18.17;89.83
59043;BME280;44826;51.596;5.624;2023-09-08T07:26:18;101606.84;;;18.23;88.84
59043;BME280;44826;51.596;5.624;2023-09-08T07:28:44;101612.69;;;18.30;89.35
59043;BME280;44826;51.596;5.624;2023-09-08T07:31:09;101614.97;;;18.38;88.78
59043;BME280;44826;51.596;5.624;2023-09-08T07:33:35;101615.53;;;18.44;89.55
59043;BME280;44826;51.596;5.624;2023-09-08T07:36:07;101616.88;;;18.53;88.76
59043;BME280;44826;51.596;5.624;2023-09-08T07:38:33;101624.50;;;18.59;89.12
59043;BME280;44826;51.596;5.624;2023-09-08T07:40:59;101618.00;;;18.66;89.38
59043;BME280;44826;51.596;5.624;2023-09-08T07:43:26;101615.88;;;18.75;89.29
59043;BME280;44826;51.596;5.624;2023-09-08T07:45:51;101609.38;;;18.82;90.59
59043;BME280;44826;51.596;5.624;2023-09-08T07:48:16;101613.28;;;18.92;90.55
59043;BME280;44826;51.596;5.624;2023-09-08T07:50:42;101605.94;;;18.99;91.04
59043;BME280;44826;51.596;5.624;2023-09-08T07:53:07;101615.34;;;19.05;89.71
59043;BME280;44826;51.596;5.624;2023-09-08T07:55:32;101614.13;;;19.12;89.16
59043;BME280;44826;51.596;5.624;2023-09-08T07:57:58;101615.44;;;19.21;89.60
59043;BME280;44826;51.596;5.624;2023-09-08T08:00:24;101616.06;;;19.26;87.65
59043;BME280;44826;51.596;5.624;2023-09-08T08:02:51;101612.25;;;19.32;87.53
59043;BME280;44826;51.596;5.624;2023-09-08T08:05:21;101604.91;;;19.38;86.47
59043;BME280;44826;51.596;5.624;2023-09-08T08:07:47;101607.16;;;19.46;86.33
59043;BME280;44826;51.596;5.624;2023-09-08T08:10:13;101603.19;;;19.55;87.66
59043;BME280;44826;51.596;5.624;2023-09-08T08:12:39;101603.72;;;19.62;86.20
59043;BME280;44826;51.596;5.624;2023-09-08T08:15:05;101605.94;;;19.69;87.38
59043;BME280;44826;51.596;5.624;2023-09-08T08:17:31;101606.31;;;19.79;86.50
59043;BME280;44826;51.596;5.624;2023-09-08T08:19:57;101605.03;;;19.88;87.06
59043;BME280;44826;51.596;5.624;2023-09-08T08:22:24;101614.25;;;19.97;87.63
59043;BME280;44826;51.596;5.624;2023-09-08T08:24:49;101612.03;;;20.05;86.44
59043;BME280;44826;51.596;5.624;2023-09-08T08:27:15;101605.56;;;20.11;86.77
59043;BME280;44826;51.596;5.624;2023-09-08T08:29:40;101613.06;;;20.19;86.41
59043;BME280;44826;51.596;5.624;2023-09-08T08:32:05;101607.28;;;20.28;86.24
59043;BME280;44826;51.596;5.624;2023-09-08T08:34:31;101611.38;;;20.34;85.05
59043;BME280;44826;51.596;5.624;2023-09-08T08:36:56;101610.03;;;20.42;86.81
59043;BME280;44826;51.596;5.624;2023-09-08T08:39:21;101613.09;;;20.51;84.77
59043;BME280;44826;51.596;5.624;2023-09-08T08:41:46;101613.69;;;20.56;84.52
59043;BME280;44826;51.596;5.624;2023-09-08T08:44:12;101608.84;;;20.64;83.54
59043;BME280;44826;51.596;5.624;2023-09-08T08:46:39;101615.47;;;20.71;83.78
59043;BME280;44826;51.596;5.624;2023-09-08T08:49:05;101612.41;;;20.79;84.48
59043;BME280;44826;51.596;5.624;2023-09-08T08:51:32;101619.91;;;20.87;83.41
59043;BME280;44826;51.596;5.624;2023-09-08T08:53:57;101615.06;;;20.95;84.18
59043;BME280;44826;51.596;5.624;2023-09-08T08:56:23;101608.44;;;21.02;83.91
59043;BME280;44826;51.596;5.624;2023-09-08T08:58:49;101601.97;;;21.08;83.56
59043;BME280;44826;51.596;5.624;2023-09-08T09:01:18;101612.19;;;21.14;82.19
59043;BME280;44826;51.596;5.624;2023-09-08T09:03:46;101604.75;;;21.21;81.15
59043;BME280;44826;51.596;5.624;2023-09-08T09:06:14;101606.09;;;21.28;82.28
59043;BME280;44826;51.596;5.624;2023-09-08T09:08:42;101604.88;;;21.34;81.91
59043;BME280;44826;51.596;5.624;2023-09-08T09:11:08;101609.88;;;21.38;81.24
59043;BME280;44826;51.596;5.624;2023-09-08T09:13:34;101607.66;;;21.47;81.04
59043;BME280;44826;51.596;5.624;2023-09-08T09:16:02;101611.63;;;21.54;81.08
59043;BME280;44826;51.596;5.624;2023-09-08T09:18:30;101606.91;;;21.59;79.56
59043;BME280;44826;51.596;5.624;2023-09-08T09:20:58;101607.41;;;21.66;80.51
59043;BME280;44826;51.596;5.624;2023-09-08T09:23:34;101607.88;;;21.73;79.71
59043;BME280;44826;51.596;5.624;2023-09-08T09:26:01;101609.22;;;21.80;78.44
59043;BME280;44826;51.596;5.624;2023-09-08T09:28:29;101606.28;;;21.85;78.77
59043;BME280;44826;51.596;5.624;2023-09-08T09:30:55;101612.94;;;21.92;79.27
59043;BME280;44826;51.596;5.624;2023-09-08T09:33:21;101611.78;;;21.96;78.20
59043;BME280;44826;51.596;5.624;2023-09-08T09:35:50;101614.06;;;22.02;79.06
59043;BME280;44826;51.596;5.624;2023-09-08T09:38:18;101612.91;;;22.06;78.39
59043;BME280;44826;51.596;5.624;2023-09-08T09:40:47;101610.72;;;22.13;78.24
59043;BME280;44826;51.596;5.624;2023-09-08T09:43:13;101601.66;;;22.17;77.54
59043;BME280;44826;51.596;5.624;2023-09-08T09:45:40;101604.84;;;22.22;77.57
59043;BME280;44826;51.596;5.624;2023-09-08T09:48:06;101607.31;;;22.25;77.71
59043;BME280;44826;51.596;5.624;2023-09-08T09:50:38;101603.41;;;22.31;77.00
59043;BME280;44826;51.596;5.624;2023-09-08T09:53:12;101604.91;;;22.35;76.46
59043;BME280;44826;51.596;5.624;2023-09-08T09:55:39;101610.88;;;22.39;77.37
59043;BME280;44826;51.596;5.624;2023-09-08T09:58:06;101616.78;;;22.44;76.90
59043;BME280;44826;51.596;5.624;2023-09-08T10:00:33;101611.84;;;22.52;78.88
59043;BME280;44826;51.596;5.624;2023-09-08T10:02:58;101610.47;;;22.59;78.13
59043;BME280;44826;51.596;5.624;2023-09-08T10:05:24;101610.28;;;22.63;78.12
59043;BME280;44826;51.596;5.624;2023-09-08T10:07:50;101602.88;;;22.68;76.95
59043;BME280;44826;51.596;5.624;2023-09-08T10:10:17;101600.88;;;22.71;77.43
59043;BME280;44826;51.596;5.624;2023-09-08T10:12:44;101599.63;;;22.77;77.67
59043;BME280;44826;51.596;5.624;2023-09-08T10:15:17;101602.09;;;22.80;75.94
59043;BME280;44826;51.596;5.624;2023-09-08T10:17:44;101596.47;;;22.85;76.04
59043;BME280;44826;51.596;5.624;2023-09-08T10:20:10;101601.38;;;22.91;76.31
59043;BME280;44826;51.596;5.624;2023-09-08T10:22:41;101600.13;;;22.97;75.94
59043;BME280;44826;51.596;5.624;2023-09-08T10:25:12;101591.00;;;23.01;75.43
59043;BME280;44826;51.596;5.624;2023-09-08T10:27:38;101594.19;;;23.06;75.31
59043;BME280;44826;51.596;5.624;2023-09-08T10:30:05;101602.59;;;23.13;74.36
59043;BME280;44826;51.596;5.624;2023-09-08T10:32:36;101599.53;;;23.19;75.75
59043;BME280;44826;51.596;5.624;2023-09-08T10:35:04;101593.94;;;23.24;73.79
59043;BME280;44826;51.596;5.624;2023-09-08T10:37:31;101590.03;;;23.29;73.14
59043;BME280;44826;51.596;5.624;2023-09-08T10:40:23;101599.16;;;23.38;76.04
59043;BME280;44826;51.596;5.624;2023-09-08T10:43:05;101591.72;;;23.43;75.03
59043;BME280;44826;51.596;5.624;2023-09-08T10:45:31;101593.22;;;23.47;73.20
59043;BME280;44826;51.596;5.624;2023-09-08T10:47:57;101587.56;;;23.52;72.54
59043;BME280;44826;51.596;5.624;2023-09-08T10:50:27;101590.91;;;23.56;74.91
59043;BME280;44826;51.596;5.624;2023-09-08T10:53:14;101585.34;;;23.59;74.05
59043;BME280;44826;51.596;5.624;2023-09-08T10:55:41;101588.75;;;23.61;72.83
59043;BME280;44826;51.596;5.624;2023-09-08T10:58:11;101592.78;;;23.67;73.07
59043;BME280;44826;51.596;5.624;2023-09-08T11:00:54;101590.56;;;23.73;73.67
59043;BME280;44826;51.596;5.624;2023-09-08T11:04:07;101586.72;;;23.77;76.28
59043;BME280;44826;51.596;5.624;2023-09-08T11:06:17;101587.25;;;23.83;74.72
59043;BME280;44826;51.596;5.624;2023-09-08T11:08:47;101584.28;;;23.87;73.38
59043;BME280;44826;51.596;5.624;2023-09-08T11:11:15;101589.16;;;23.93;74.35
59043;BME280;44826;51.596;5.624;2023-09-08T11:13:41;101585.13;;;24.01;72.64
59043;BME280;44826;51.596;5.624;2023-09-08T11:16:06;101580.25;;;24.07;73.02
59043;BME280;44826;51.596;5.624;2023-09-08T11:18:33;101581.69;;;24.12;72.17
59043;BME280;44826;51.596;5.624;2023-09-08T11:21:00;101587.66;;;24.15;73.78
59043;BME280;44826;51.596;5.624;2023-09-08T11:23:26;101577.03;;;24.15;70.49
59043;BME280;44826;51.596;5.624;2023-09-08T11:25:52;101588.28;;;24.19;72.05
59043;BME280;44826;51.596;5.624;2023-09-08T11:28:17;101583.59;;;24.22;71.84
59043;BME280;44826;51.596;5.624;2023-09-08T11:30:46;101586.78;;;24.28;72.04
59043;BME280;44826;51.596;5.624;2023-09-08T11:33:18;101587.41;;;24.31;72.39
59043;BME280;44826;51.596;5.624;2023-09-08T11:35:47;101585.25;;;24.36;72.73
59043;BME280;44826;51.596;5.624;2023-09-08T11:38:12;101583.13;;;24.42;72.25
59043;BME280;44826;51.596;5.624;2023-09-08T11:43:31;101572.75;;;24.50;70.25
59043;BME280;44826;51.596;5.624;2023-09-08T11:45:59;101577.72;;;24.54;68.93
59043;BME280;44826;51.596;5.624;2023-09-08T11:48:24;101582.59;;;24.61;68.65
59043;BME280;44826;51.596;5.624;2023-09-08T11:50:53;101577.91;;;24.64;70.56
59043;BME280;44826;51.596;5.624;2023-09-08T11:53:20;101575.56;;;24.73;71.33
59043;BME280;44826;51.596;5.624;2023-09-08T11:55:46;101577.66;;;24.80;70.00
59043;BME280;44826;51.596;5.624;2023-09-08T11:58:12;101574.63;;;24.85;69.42
59043;BME280;44826;51.596;5.624;2023-09-08T12:00:37;101575.16;;;24.90;67.38
59043;BME280;44826;51.596;5.624;2023-09-08T12:03:11;101568.59;;;24.94;70.45
59043;BME280;44826;51.596;5.624;2023-09-08T12:05:37;101575.41;;;24.98;69.74
59043;BME280;44826;51.596;5.624;2023-09-08T12:08:03;101581.47;;;25.00;69.88
59043;BME280;44826;51.596;5.624;2023-09-08T12:10:30;101570.47;;;25.05;65.77
59043;BME280;44826;51.596;5.624;2023-09-08T12:13:02;101581.50;;;25.12;66.05
59043;BME280;44826;51.596;5.624;2023-09-08T12:15:31;101571.34;;;25.17;65.93
59043;BME280;44826;51.596;5.624;2023-09-08T12:18:04;101567.72;;;25.18;66.02
59043;BME280;44826;51.596;5.624;2023-09-08T12:20:30;101567.50;;;25.21;67.23
59043;BME280;44826;51.596;5.624;2023-09-08T12:22:59;101567.13;;;25.26;66.33
59043;BME280;44826;51.596;5.624;2023-09-08T12:25:26;101569.44;;;25.30;65.58
59043;BME280;44826;51.596;5.624;2023-09-08T12:27:53;101570.91;;;25.35;64.96
59043;BME280;44826;51.596;5.624;2023-09-08T12:30:20;101565.34;;;25.38;63.46
59043;BME280;44826;51.596;5.624;2023-09-08T12:32:48;101568.72;;;25.40;65.15
59043;BME280;44826;51.596;5.624;2023-09-08T12:35:20;101568.59;;;25.41;66.50
59043;BME280;44826;51.596;5.624;2023-09-08T12:37:53;101571.06;;;25.44;66.08
59043;BME280;44826;51.596;5.624;2023-09-08T12:40:18;101568.16;;;25.48;64.41
59043;BME280;44826;51.596;5.624;2023-09-08T12:42:44;101564.16;;;25.53;64.51
59043;BME280;44826;51.596;5.624;2023-09-08T12:45:09;101556.78;;;25.57;64.10
59043;BME280;44826;51.596;5.624;2023-09-08T12:47:34;101557.50;;;25.59;64.60
59043;BME280;44826;51.596;5.624;2023-09-08T12:50:01;101561.41;;;25.66;67.56
59043;BME280;44826;51.596;5.624;2023-09-08T12:52:27;101559.09;;;25.73;63.78
59043;BME280;44826;51.596;5.624;2023-09-08T12:54:52;101565.38;;;25.83;63.67